sensor_id;sensor_type;location;lat;lon;timestamp;P1;durP1;ratioP1;P2;durP2;ratioP2
73567;SDS011;61847;54.994;73.310;2022-10-17T00:00:48;11.63;;;6.47;;
73567;SDS011;61847;54.994;73.310;2022-10-17T00:03:14;35.35;;;7.72;;
73567;SDS011;61847;54.994;73.310;2022-10-17T00:05:42;40.17;;;8.43;;
73567;SDS011;61847;54.994;73.310;2022-10-17T00:08:10;37.25;;;8.10;;
73567;SDS011;61847;54.994;73.310;2022-10-17T00:10:37;82.47;;;11.38;;
73567;SDS011;61847;54.994;73.310;2022-10-17T00:13:05;58.47;;;11.38;;
73567;SDS011;61847;54.994;73.310;2022-10-17T00:15:32;90.05;;;12.40;;
73567;SDS011;61847;54.994;73.310;2022-10-17T00:17:59;132.55;;;13.00;;
73567;SDS011;61847;54.994;73.310;2022-10-17T00:20:25;159.70;;;18.05;;
73567;SDS011;61847;54.994;73.310;2022-10-17T00:22:52;206.77;;;20.13;;
73567;SDS011;61847;54.994;73.310;2022-10-17T00:25:21;274.23;;;20.10;;
73567;SDS011;61847;54.994;73.310;2022-10-17T00:27:47;122.00;;;21.27;;
73567;SDS011;61847;54.994;73.310;2022-10-17T00:30:14;196.90;;;25.73;;
73567;SDS011;61847;54.994;73.310;2022-10-17T00:32:47;91.35;;;23.33;;
73567;SDS011;61847;54.994;73.310;2022-10-17T00:35:13;123.45;;;24.55;;
73567;SDS011;61847;54.994;73.310;2022-10-17T00:37:40;85.50;;;23.27;;
73567;SDS011;61847;54.994;73.310;2022-10-17T00:40:07;73.28;;;22.38;;
73567;SDS011;61847;54.994;73.310;2022-10-17T00:42:34;67.78;;;22.90;;
73567;SDS011;61847;54.994;73.310;2022-10-17T00:45:31;63.67;;;24.02;;
73567;SDS011;61847;54.994;73.310;2022-10-17T00:48:02;48.30;;;22.50;;
73567;SDS011;61847;54.994;73.310;2022-10-17T00:50:34;41.30;;;20.92;;
73567;SDS011;61847;54.994;73.310;2022-10-17T00:53:03;43.90;;;20.77;;
73567;SDS011;61847;54.994;73.310;2022-10-17T00:55:32;50.72;;;21.00;;
73567;SDS011;61847;54.994;73.310;2022-10-17T00:58:11;42.10;;;19.10;;
73567;SDS011;61847;54.994;73.310;2022-10-17T01:00:37;41.63;;;20.30;;
73567;SDS011;61847;54.994;73.310;2022-10-17T01:03:04;53.35;;;20.60;;
73567;SDS011;61847;54.994;73.310;2022-10-17T01:05:30;42.47;;;20.55;;
73567;SDS011;61847;54.994;73.310;2022-10-17T01:07:57;49.58;;;23.38;;
73567;SDS011;61847;54.994;73.310;2022-10-17T01:10:25;57.63;;;23.88;;
73567;SDS011;61847;54.994;73.310;2022-10-17T01:15:37;67.57;;;29.50;;
73567;SDS011;61847;54.994;73.310;2022-10-17T01:18:34;88.03;;;30.05;;
73567;SDS011;61847;54.994;73.310;2022-10-17T01:24:07;194.90;;;39.13;;
73567;SDS011;61847;54.994;73.310;2022-10-17T01:30:00;116.63;;;40.55;;
73567;SDS011;61847;54.994;73.310;2022-10-17T01:33:02;133.30;;;47.20;;
73567;SDS011;61847;54.994;73.310;2022-10-17T01:35:43;124.40;;;47.22;;
73567;SDS011;61847;54.994;73.310;2022-10-17T01:38:22;114.38;;;43.35;;
73567;SDS011;61847;54.994;73.310;2022-10-17T01:40:56;110.50;;;45.20;;
73567;SDS011;61847;54.994;73.310;2022-10-17T01:43:36;146.52;;;49.75;;
73567;SDS011;61847;54.994;73.310;2022-10-17T01:46:11;114.15;;;45.97;;
73567;SDS011;61847;54.994;73.310;2022-10-17T01:48:51;107.25;;;42.63;;
73567;SDS011;61847;54.994;73.310;2022-10-17T01:51:23;90.70;;;41.92;;
73567;SDS011;61847;54.994;73.310;2022-10-17T01:54:02;96.85;;;41.53;;
73567;SDS011;61847;54.994;73.310;2022-10-17T01:56:36;94.20;;;39.22;;
73567;SDS011;61847;54.994;73.310;2022-10-17T01:59:12;90.50;;;37.97;;
73567;SDS011;61847;54.994;73.310;2022-10-17T02:01:43;89.80;;;38.40;;
73567;SDS011;61847;54.994;73.310;2022-10-17T02:04:10;84.90;;;37.45;;
73567;SDS011;61847;54.994;73.310;2022-10-17T02:06:37;95.93;;;37.53;;
73567;SDS011;61847;54.994;73.310;2022-10-17T02:09:18;73.93;;;34.55;;
73567;SDS011;61847;54.994;73.310;2022-10-17T02:11:54;72.03;;;33.15;;
73567;SDS011;61847;54.994;73.310;2022-10-17T02:17:52;67.68;;;31.05;;
73567;SDS011;61847;54.994;73.310;2022-10-17T02:20:31;65.38;;;28.80;;
73567;SDS011;61847;54.994;73.310;2022-10-17T02:29:06;46.88;;;22.08;;
73567;SDS011;61847;54.994;73.310;2022-10-17T02:31:46;46.50;;;21.00;;
73567;SDS011;61847;54.994;73.310;2022-10-17T02:34:36;44.80;;;20.52;;
73567;SDS011;61847;54.994;73.310;2022-10-17T02:37:08;42.10;;;19.38;;
73567;SDS011;61847;54.994;73.310;2022-10-17T02:39:36;35.95;;;18.90;;
73567;SDS011;61847;54.994;73.310;2022-10-17T02:42:05;38.30;;;19.05;;
73567;SDS011;61847;54.994;73.310;2022-10-17T02:44:36;37.78;;;18.58;;
73567;SDS011;61847;54.994;73.310;2022-10-17T02:47:07;35.83;;;17.90;;
73567;SDS011;61847;54.994;73.310;2022-10-17T02:49:42;30.67;;;16.35;;
73567;SDS011;61847;54.994;73.310;2022-10-17T02:55:18;48.97;;;18.00;;
73567;SDS011;61847;54.994;73.310;2022-10-17T02:57:50;44.88;;;17.25;;
73567;SDS011;61847;54.994;73.310;2022-10-17T03:00:19;38.00;;;16.23;;
73567;SDS011;61847;54.994;73.310;2022-10-17T03:02:49;29.08;;;14.77;;
73567;SDS011;61847;54.994;73.310;2022-10-17T03:05:18;34.58;;;17.00;;
73567;SDS011;61847;54.994;73.310;2022-10-17T03:07:46;33.70;;;15.05;;
73567;SDS011;61847;54.994;73.310;2022-10-17T03:10:12;34.83;;;17.10;;
73567;SDS011;61847;54.994;73.310;2022-10-17T03:12:39;37.08;;;16.63;;
73567;SDS011;61847;54.994;73.310;2022-10-17T03:15:12;36.50;;;17.50;;
73567;SDS011;61847;54.994;73.310;2022-10-17T03:17:39;51.50;;;21.88;;
73567;SDS011;61847;54.994;73.310;2022-10-17T03:20:07;42.92;;;20.73;;
73567;SDS011;61847;54.994;73.310;2022-10-17T03:22:33;51.05;;;22.20;;
73567;SDS011;61847;54.994;73.310;2022-10-17T03:25:02;65.13;;;25.70;;
73567;SDS011;61847;54.994;73.310;2022-10-17T03:27:28;50.42;;;24.23;;
73567;SDS011;61847;54.994;73.310;2022-10-17T03:29:54;56.22;;;26.00;;
73567;SDS011;61847;54.994;73.310;2022-10-17T03:32:21;58.17;;;25.70;;
73567;SDS011;61847;54.994;73.310;2022-10-17T03:34:47;54.03;;;24.08;;
73567;SDS011;61847;54.994;73.310;2022-10-17T03:37:13;58.40;;;23.67;;
73567;SDS011;61847;54.994;73.310;2022-10-17T03:39:41;49.30;;;22.23;;
73567;SDS011;61847;54.994;73.310;2022-10-17T03:42:07;43.50;;;21.45;;
73567;SDS011;61847;54.994;73.310;2022-10-17T03:44:33;39.47;;;21.77;;
73567;SDS011;61847;54.994;73.310;2022-10-17T03:46:59;43.53;;;20.85;;
73567;SDS011;61847;54.994;73.310;2022-10-17T03:49:26;45.08;;;22.55;;
73567;SDS011;61847;54.994;73.310;2022-10-17T03:51:53;48.28;;;22.75;;
73567;SDS011;61847;54.994;73.310;2022-10-17T03:54:19;41.65;;;21.60;;
73567;SDS011;61847;54.994;73.310;2022-10-17T03:56:55;55.78;;;23.30;;
73567;SDS011;61847;54.994;73.310;2022-10-17T03:59:22;50.72;;;24.85;;
73567;SDS011;61847;54.994;73.310;2022-10-17T04:01:58;54.53;;;25.70;;
73567;SDS011;61847;54.994;73.310;2022-10-17T04:04:24;56.15;;;25.55;;
73567;SDS011;61847;54.994;73.310;2022-10-17T04:06:50;48.25;;;25.88;;
73567;SDS011;61847;54.994;73.310;2022-10-17T04:09:17;57.03;;;27.25;;
73567;SDS011;61847;54.994;73.310;2022-10-17T04:11:57;61.28;;;28.02;;
73567;SDS011;61847;54.994;73.310;2022-10-17T04:14:24;61.45;;;28.98;;
73567;SDS011;61847;54.994;73.310;2022-10-17T04:16:50;56.42;;;26.95;;
73567;SDS011;61847;54.994;73.310;2022-10-17T04:19:19;53.38;;;26.98;;
73567;SDS011;61847;54.994;73.310;2022-10-17T04:21:50;57.63;;;27.00;;
73567;SDS011;61847;54.994;73.310;2022-10-17T04:24:29;57.55;;;27.02;;
73567;SDS011;61847;54.994;73.310;2022-10-17T04:27:07;55.70;;;26.10;;
73567;SDS011;61847;54.994;73.310;2022-10-17T04:29:37;51.90;;;23.48;;
73567;SDS011;61847;54.994;73.310;2022-10-17T04:32:15;56.72;;;26.58;;
73567;SDS011;61847;54.994;73.310;2022-10-17T04:34:49;51.53;;;24.95;;
73567;SDS011;61847;54.994;73.310;2022-10-17T04:37:17;55.35;;;24.35;;
73567;SDS011;61847;54.994;73.310;2022-10-17T04:39:45;51.53;;;23.83;;
73567;SDS011;61847;54.994;73.310;2022-10-17T04:42:11;42.05;;;20.88;;
73567;SDS011;61847;54.994;73.310;2022-10-17T04:44:38;41.35;;;18.55;;
73567;SDS011;61847;54.994;73.310;2022-10-17T04:47:06;39.25;;;17.95;;
73567;SDS011;61847;54.994;73.310;2022-10-17T04:49:33;37.28;;;18.58;;
73567;SDS011;61847;54.994;73.310;2022-10-17T04:52:07;33.50;;;17.50;;
73567;SDS011;61847;54.994;73.310;2022-10-17T04:54:42;39.00;;;17.80;;
73567;SDS011;61847;54.994;73.310;2022-10-17T04:57:09;39.95;;;18.38;;
73567;SDS011;61847;54.994;73.310;2022-10-17T04:59:37;43.42;;;18.65;;
73567;SDS011;61847;54.994;73.310;2022-10-17T05:02:14;41.30;;;18.88;;
73567;SDS011;61847;54.994;73.310;2022-10-17T05:04:41;37.28;;;19.80;;
73567;SDS011;61847;54.994;73.310;2022-10-17T05:07:09;42.55;;;18.35;;
73567;SDS011;61847;54.994;73.310;2022-10-17T05:09:46;38.70;;;19.02;;
73567;SDS011;61847;54.994;73.310;2022-10-17T05:12:14;42.38;;;18.75;;
73567;SDS011;61847;54.994;73.310;2022-10-17T05:14:43;43.03;;;18.42;;
73567;SDS011;61847;54.994;73.310;2022-10-17T05:17:09;42.10;;;18.67;;
73567;SDS011;61847;54.994;73.310;2022-10-17T05:19:36;39.17;;;19.45;;
73567;SDS011;61847;54.994;73.310;2022-10-17T05:22:04;39.83;;;19.00;;
73567;SDS011;61847;54.994;73.310;2022-10-17T05:24:30;37.63;;;18.85;;
73567;SDS011;61847;54.994;73.310;2022-10-17T05:26:58;48.88;;;19.25;;
73567;SDS011;61847;54.994;73.310;2022-10-17T05:29:24;39.55;;;19.20;;
73567;SDS011;61847;54.994;73.310;2022-10-17T05:31:59;42.97;;;21.08;;
73567;SDS011;61847;54.994;73.310;2022-10-17T05:34:25;39.95;;;20.05;;
73567;SDS011;61847;54.994;73.310;2022-10-17T05:36:52;35.03;;;18.25;;
73567;SDS011;61847;54.994;73.310;2022-10-17T05:39:21;33.08;;;17.48;;
73567;SDS011;61847;54.994;73.310;2022-10-17T05:41:49;35.35;;;17.17;;
73567;SDS011;61847;54.994;73.310;2022-10-17T05:44:17;27.13;;;16.02;;
73567;SDS011;61847;54.994;73.310;2022-10-17T05:46:48;27.92;;;15.40;;
73567;SDS011;61847;54.994;73.310;2022-10-17T05:49:15;26.75;;;15.40;;
73567;SDS011;61847;54.994;73.310;2022-10-17T05:51:41;34.17;;;15.63;;
73567;SDS011;61847;54.994;73.310;2022-10-17T05:54:08;25.58;;;14.38;;
73567;SDS011;61847;54.994;73.310;2022-10-17T05:56:44;28.90;;;15.00;;
73567;SDS011;61847;54.994;73.310;2022-10-17T05:59:10;25.13;;;13.52;;
73567;SDS011;61847;54.994;73.310;2022-10-17T06:01:53;56.60;;;25.92;;
73567;SDS011;61847;54.994;73.310;2022-10-17T06:04:19;24.20;;;12.60;;
73567;SDS011;61847;54.994;73.310;2022-10-17T06:06:46;22.20;;;13.20;;
73567;SDS011;61847;54.994;73.310;2022-10-17T06:09:12;31.83;;;13.30;;
73567;SDS011;61847;54.994;73.310;2022-10-17T06:11:42;23.38;;;12.05;;
73567;SDS011;61847;54.994;73.310;2022-10-17T06:14:10;23.23;;;12.07;;
73567;SDS011;61847;54.994;73.310;2022-10-17T06:16:38;22.33;;;10.95;;
73567;SDS011;61847;54.994;73.310;2022-10-17T06:19:05;19.20;;;11.30;;
73567;SDS011;61847;54.994;73.310;2022-10-17T06:21:31;18.98;;;10.98;;
73567;SDS011;61847;54.994;73.310;2022-10-17T06:24:19;24.20;;;10.88;;
73567;SDS011;61847;54.994;73.310;2022-10-17T06:26:45;23.33;;;9.70;;
73567;SDS011;61847;54.994;73.310;2022-10-17T06:29:15;15.13;;;9.32;;
73567;SDS011;61847;54.994;73.310;2022-10-17T06:31:57;15.40;;;8.88;;
73567;SDS011;61847;54.994;73.310;2022-10-17T06:34:24;13.88;;;7.93;;
73567;SDS011;61847;54.994;73.310;2022-10-17T06:36:51;15.27;;;8.05;;
73567;SDS011;61847;54.994;73.310;2022-10-17T06:39:18;15.73;;;7.93;;
73567;SDS011;61847;54.994;73.310;2022-10-17T06:41:58;11.32;;;7.03;;
73567;SDS011;61847;54.994;73.310;2022-10-17T06:44:43;13.57;;;6.53;;
73567;SDS011;61847;54.994;73.310;2022-10-17T06:47:28;10.20;;;6.18;;
73567;SDS011;61847;54.994;73.310;2022-10-17T06:50:09;15.27;;;6.93;;
73567;SDS011;61847;54.994;73.310;2022-10-17T06:52:42;12.90;;;7.00;;
73567;SDS011;61847;54.994;73.310;2022-10-17T06:55:29;15.23;;;6.97;;
73567;SDS011;61847;54.994;73.310;2022-10-17T06:58:14;15.63;;;6.65;;
73567;SDS011;61847;54.994;73.310;2022-10-17T07:01:00;13.77;;;6.63;;
73567;SDS011;61847;54.994;73.310;2022-10-17T07:03:29;10.88;;;6.07;;
73567;SDS011;61847;54.994;73.310;2022-10-17T07:05:56;14.43;;;6.00;;
73567;SDS011;61847;54.994;73.310;2022-10-17T07:08:23;9.85;;;5.97;;
73567;SDS011;61847;54.994;73.310;2022-10-17T07:10:49;10.27;;;5.97;;
73567;SDS011;61847;54.994;73.310;2022-10-17T07:13:16;10.88;;;5.63;;
73567;SDS011;61847;54.994;73.310;2022-10-17T07:15:44;7.35;;;5.22;;
73567;SDS011;61847;54.994;73.310;2022-10-17T07:18:11;10.75;;;6.55;;
73567;SDS011;61847;54.994;73.310;2022-10-17T07:20:38;14.00;;;6.30;;
73567;SDS011;61847;54.994;73.310;2022-10-17T07:23:05;12.75;;;6.15;;
73567;SDS011;61847;54.994;73.310;2022-10-17T07:25:33;10.85;;;6.18;;
73567;SDS011;61847;54.994;73.310;2022-10-17T07:28:04;17.60;;;5.78;;
73567;SDS011;61847;54.994;73.310;2022-10-17T07:30:31;9.40;;;5.35;;
73567;SDS011;61847;54.994;73.310;2022-10-17T07:33:06;15.60;;;5.28;;
73567;SDS011;61847;54.994;73.310;2022-10-17T07:35:38;11.85;;;5.53;;
73567;SDS011;61847;54.994;73.310;2022-10-17T07:38:06;9.15;;;5.00;;
73567;SDS011;61847;54.994;73.310;2022-10-17T07:40:33;6.25;;;3.70;;
73567;SDS011;61847;54.994;73.310;2022-10-17T07:43:00;9.10;;;3.85;;
73567;SDS011;61847;54.994;73.310;2022-10-17T07:45:27;5.65;;;3.30;;
73567;SDS011;61847;54.994;73.310;2022-10-17T07:47:54;9.70;;;3.85;;
73567;SDS011;61847;54.994;73.310;2022-10-17T07:50:22;13.80;;;4.32;;
73567;SDS011;61847;54.994;73.310;2022-10-17T07:52:48;11.32;;;4.50;;
73567;SDS011;61847;54.994;73.310;2022-10-17T07:55:15;8.45;;;4.40;;
73567;SDS011;61847;54.994;73.310;2022-10-17T07:57:41;9.77;;;4.50;;
73567;SDS011;61847;54.994;73.310;2022-10-17T08:00:13;10.43;;;4.40;;
73567;SDS011;61847;54.994;73.310;2022-10-17T08:02:40;10.60;;;3.97;;
73567;SDS011;61847;54.994;73.310;2022-10-17T08:05:10;13.57;;;4.10;;
73567;SDS011;61847;54.994;73.310;2022-10-17T08:07:36;14.90;;;4.10;;
73567;SDS011;61847;54.994;73.310;2022-10-17T08:10:03;13.70;;;4.00;;
73567;SDS011;61847;54.994;73.310;2022-10-17T08:12:30;6.20;;;3.25;;
73567;SDS011;61847;54.994;73.310;2022-10-17T08:14:59;9.82;;;2.72;;
73567;SDS011;61847;54.994;73.310;2022-10-17T08:17:26;4.75;;;2.55;;
73567;SDS011;61847;54.994;73.310;2022-10-17T08:19:52;11.95;;;2.90;;
73567;SDS011;61847;54.994;73.310;2022-10-17T08:22:18;6.30;;;2.33;;
73567;SDS011;61847;54.994;73.310;2022-10-17T08:24:45;10.10;;;2.85;;
73567;SDS011;61847;54.994;73.310;2022-10-17T08:27:11;7.45;;;2.78;;
73567;SDS011;61847;54.994;73.310;2022-10-17T08:29:38;7.40;;;2.17;;
73567;SDS011;61847;54.994;73.310;2022-10-17T08:32:10;3.65;;;1.88;;
73567;SDS011;61847;54.994;73.310;2022-10-17T08:34:36;4.97;;;1.02;;
73567;SDS011;61847;54.994;73.310;2022-10-17T08:37:13;7.78;;;1.10;;
73567;SDS011;61847;54.994;73.310;2022-10-17T08:39:39;3.33;;;0.98;;
73567;SDS011;61847;54.994;73.310;2022-10-17T08:47:59;3.28;;;1.35;;
73567;SDS011;61847;54.994;73.310;2022-10-17T08:50:31;2.65;;;1.13;;
73567;SDS011;61847;54.994;73.310;2022-10-17T08:53:10;2.42;;;1.23;;
73567;SDS011;61847;54.994;73.310;2022-10-17T08:55:47;9.60;;;1.20;;
73567;SDS011;61847;54.994;73.310;2022-10-17T08:58:20;4.78;;;1.33;;
73567;SDS011;61847;54.994;73.310;2022-10-17T09:01:00;1.42;;;1.10;;
73567;SDS011;61847;54.994;73.310;2022-10-17T09:03:34;2.08;;;1.20;;
73567;SDS011;61847;54.994;73.310;2022-10-17T09:08:48;10.18;;;1.70;;
73567;SDS011;61847;54.994;73.310;2022-10-17T09:25:27;20.27;;;11.50;;
73567;SDS011;61847;54.994;73.310;2022-10-17T09:31:02;2.08;;;1.40;;
73567;SDS011;61847;54.994;73.310;2022-10-17T09:33:39;2.17;;;1.20;;
73567;SDS011;61847;54.994;73.310;2022-10-17T09:38:49;3.03;;;1.15;;
73567;SDS011;61847;54.994;73.310;2022-10-17T09:41:19;1.92;;;1.25;;
73567;SDS011;61847;54.994;73.310;2022-10-17T09:43:50;5.90;;;1.48;;
73567;SDS011;61847;54.994;73.310;2022-10-17T09:46:35;6.35;;;1.75;;
73567;SDS011;61847;54.994;73.310;2022-10-17T09:49:17;3.55;;;1.65;;
73567;SDS011;61847;54.994;73.310;2022-10-17T09:51:49;4.45;;;2.22;;
73567;SDS011;61847;54.994;73.310;2022-10-17T09:54:19;3.80;;;1.90;;
73567;SDS011;61847;54.994;73.310;2022-10-17T09:56:55;4.57;;;2.97;;
73567;SDS011;61847;54.994;73.310;2022-10-17T09:59:29;9.10;;;3.03;;
73567;SDS011;61847;54.994;73.310;2022-10-17T10:02:18;4.45;;;2.40;;
73567;SDS011;61847;54.994;73.310;2022-10-17T10:07:59;2.35;;;1.00;;
73567;SDS011;61847;54.994;73.310;2022-10-17T10:10:31;1.52;;;0.70;;
73567;SDS011;61847;54.994;73.310;2022-10-17T10:15:39;0.85;;;0.60;;
73567;SDS011;61847;54.994;73.310;2022-10-17T10:21:20;5.30;;;0.90;;
73567;SDS011;61847;54.994;73.310;2022-10-17T10:26:37;3.50;;;2.35;;
73567;SDS011;61847;54.994;73.310;2022-10-17T10:32:09;1.30;;;0.90;;
73567;SDS011;61847;54.994;73.310;2022-10-17T10:34:52;2.13;;;0.85;;
73567;SDS011;61847;54.994;73.310;2022-10-17T10:37:22;2.15;;;1.05;;
73567;SDS011;61847;54.994;73.310;2022-10-17T10:39:55;10.82;;;0.85;;
73567;SDS011;61847;54.994;73.310;2022-10-17T10:42:25;1.77;;;0.88;;
73567;SDS011;61847;54.994;73.310;2022-10-17T10:45:02;2.70;;;0.98;;
73567;SDS011;61847;54.994;73.310;2022-10-17T10:47:51;3.42;;;1.08;;
73567;SDS011;61847;54.994;73.310;2022-10-17T10:56:02;2.38;;;1.10;;
73567;SDS011;61847;54.994;73.310;2022-10-17T11:01:13;5.38;;;3.20;;
73567;SDS011;61847;54.994;73.310;2022-10-17T11:06:44;8.95;;;4.25;;
73567;SDS011;61847;54.994;73.310;2022-10-17T11:09:18;10.35;;;5.05;;
73567;SDS011;61847;54.994;73.310;2022-10-17T11:12:10;6.35;;;3.10;;
73567;SDS011;61847;54.994;73.310;2022-10-17T11:14:58;2.17;;;1.23;;
73567;SDS011;61847;54.994;73.310;2022-10-17T11:17:34;2.25;;;1.17;;
73567;SDS011;61847;54.994;73.310;2022-10-17T11:22:40;3.08;;;0.80;;
73567;SDS011;61847;54.994;73.310;2022-10-17T11:28:13;1.63;;;1.10;;
73567;SDS011;61847;54.994;73.310;2022-10-17T11:30:55;5.53;;;2.85;;
73567;SDS011;61847;54.994;73.310;2022-10-17T11:36:01;4.57;;;2.22;;
73567;SDS011;61847;54.994;73.310;2022-10-17T11:38:46;2.53;;;1.50;;
73567;SDS011;61847;54.994;73.310;2022-10-17T11:41:44;6.03;;;2.13;;
73567;SDS011;61847;54.994;73.310;2022-10-17T11:46:40;1.20;;;0.70;;
73567;SDS011;61847;54.994;73.310;2022-10-17T11:49:19;1.35;;;0.70;;
73567;SDS011;61847;54.994;73.310;2022-10-17T11:54:50;1.75;;;0.95;;
73567;SDS011;61847;54.994;73.310;2022-10-17T11:57:40;1.65;;;0.90;;
73567;SDS011;61847;54.994;73.310;2022-10-17T12:06:02;1.83;;;1.10;;
73567;SDS011;61847;54.994;73.310;2022-10-17T12:13:59;4.30;;;1.05;;
73567;SDS011;61847;54.994;73.310;2022-10-17T12:21:27;2.30;;;0.80;;
73567;SDS011;61847;54.994;73.310;2022-10-17T12:24:32;4.28;;;0.95;;
73567;SDS011;61847;54.994;73.310;2022-10-17T12:27:21;2.25;;;0.90;;
73567;SDS011;61847;54.994;73.310;2022-10-17T12:30:06;20.08;;;9.80;;
73567;SDS011;61847;54.994;73.310;2022-10-17T12:32:59;27.88;;;16.00;;
73567;SDS011;61847;54.994;73.310;2022-10-17T12:35:38;37.58;;;19.65;;
73567;SDS011;61847;54.994;73.310;2022-10-17T12:45:49;13.77;;;7.20;;
73567;SDS011;61847;54.994;73.310;2022-10-17T12:51:10;2.60;;;1.90;;
73567;SDS011;61847;54.994;73.310;2022-10-17T12:56:19;11.85;;;5.47;;
73567;SDS011;61847;54.994;73.310;2022-10-17T12:58:47;7.57;;;4.68;;
73567;SDS011;61847;54.994;73.310;2022-10-17T13:01:26;5.75;;;2.65;;
73567;SDS011;61847;54.994;73.310;2022-10-17T13:03:56;7.47;;;3.28;;
73567;SDS011;61847;54.994;73.310;2022-10-17T13:06:28;5.57;;;3.15;;
73567;SDS011;61847;54.994;73.310;2022-10-17T13:09:01;3.28;;;2.67;;
73567;SDS011;61847;54.994;73.310;2022-10-17T13:11:34;3.80;;;2.25;;
73567;SDS011;61847;54.994;73.310;2022-10-17T13:14:04;4.95;;;2.30;;
73567;SDS011;61847;54.994;73.310;2022-10-17T13:16:38;4.32;;;2.30;;
73567;SDS011;61847;54.994;73.310;2022-10-17T13:19:14;3.80;;;2.28;;
73567;SDS011;61847;54.994;73.310;2022-10-17T13:21:49;3.80;;;2.40;;
73567;SDS011;61847;54.994;73.310;2022-10-17T13:24:35;11.82;;;3.30;;
73567;SDS011;61847;54.994;73.310;2022-10-17T13:27:03;3.42;;;2.28;;
73567;SDS011;61847;54.994;73.310;2022-10-17T13:29:43;7.13;;;2.72;;
73567;SDS011;61847;54.994;73.310;2022-10-17T13:32:09;3.95;;;2.60;;
73567;SDS011;61847;54.994;73.310;2022-10-17T13:34:37;4.97;;;2.67;;
73567;SDS011;61847;54.994;73.310;2022-10-17T13:37:04;3.10;;;2.20;;
73567;SDS011;61847;54.994;73.310;2022-10-17T13:39:42;5.15;;;2.28;;
73567;SDS011;61847;54.994;73.310;2022-10-17T13:42:27;6.45;;;3.10;;
73567;SDS011;61847;54.994;73.310;2022-10-17T13:45:16;7.63;;;2.22;;
73567;SDS011;61847;54.994;73.310;2022-10-17T13:47:59;3.85;;;2.60;;
73567;SDS011;61847;54.994;73.310;2022-10-17T13:50:31;5.68;;;2.38;;
73567;SDS011;61847;54.994;73.310;2022-10-17T13:53:16;7.95;;;2.88;;
73567;SDS011;61847;54.994;73.310;2022-10-17T13:58:44;5.32;;;2.38;;
73567;SDS011;61847;54.994;73.310;2022-10-17T14:01:14;4.35;;;2.55;;
73567;SDS011;61847;54.994;73.310;2022-10-17T14:03:45;4.13;;;2.58;;
73567;SDS011;61847;54.994;73.310;2022-10-17T14:06:14;4.00;;;2.50;;
73567;SDS011;61847;54.994;73.310;2022-10-17T14:08:52;6.15;;;2.38;;
73567;SDS011;61847;54.994;73.310;2022-10-17T14:11:40;4.65;;;2.33;;
73567;SDS011;61847;54.994;73.310;2022-10-17T14:14:21;3.78;;;2.00;;
73567;SDS011;61847;54.994;73.310;2022-10-17T14:16:50;4.72;;;2.20;;
73567;SDS011;61847;54.994;73.310;2022-10-17T14:19:22;4.25;;;1.67;;
73567;SDS011;61847;54.994;73.310;2022-10-17T14:21:55;2.58;;;1.65;;
73567;SDS011;61847;54.994;73.310;2022-10-17T14:24:47;2.93;;;1.30;;
73567;SDS011;61847;54.994;73.310;2022-10-17T14:27:26;2.13;;;1.40;;
73567;SDS011;61847;54.994;73.310;2022-10-17T14:30:00;2.00;;;1.23;;
73567;SDS011;61847;54.994;73.310;2022-10-17T14:32:34;2.75;;;1.27;;
73567;SDS011;61847;54.994;73.310;2022-10-17T14:35:02;1.45;;;1.10;;
73567;SDS011;61847;54.994;73.310;2022-10-17T14:40:17;3.15;;;1.45;;
73567;SDS011;61847;54.994;73.310;2022-10-17T14:42:54;1.85;;;1.40;;
73567;SDS011;61847;54.994;73.310;2022-10-17T14:48:05;2.05;;;1.35;;
73567;SDS011;61847;54.994;73.310;2022-10-17T14:50:33;3.35;;;1.65;;
73567;SDS011;61847;54.994;73.310;2022-10-17T14:53:05;1.85;;;1.42;;
73567;SDS011;61847;54.994;73.310;2022-10-17T14:55:56;4.38;;;1.73;;
73567;SDS011;61847;54.994;73.310;2022-10-17T14:58:30;2.47;;;1.60;;
73567;SDS011;61847;54.994;73.310;2022-10-17T15:01:03;3.22;;;1.50;;
73567;SDS011;61847;54.994;73.310;2022-10-17T15:03:40;2.75;;;1.80;;
73567;SDS011;61847;54.994;73.310;2022-10-17T15:06:20;3.88;;;2.15;;
73567;SDS011;61847;54.994;73.310;2022-10-17T15:08:51;3.88;;;2.28;;
73567;SDS011;61847;54.994;73.310;2022-10-17T15:11:17;3.42;;;1.90;;
73567;SDS011;61847;54.994;73.310;2022-10-17T15:13:44;5.10;;;2.22;;
73567;SDS011;61847;54.994;73.310;2022-10-17T15:18:45;5.35;;;2.40;;
73567;SDS011;61847;54.994;73.310;2022-10-17T15:21:12;5.50;;;2.70;;
73567;SDS011;61847;54.994;73.310;2022-10-17T15:23:39;5.78;;;2.75;;
73567;SDS011;61847;54.994;73.310;2022-10-17T15:26:19;4.15;;;2.40;;
73567;SDS011;61847;54.994;73.310;2022-10-17T15:28:56;4.78;;;2.00;;
73567;SDS011;61847;54.994;73.310;2022-10-17T15:31:23;3.35;;;1.90;;
73567;SDS011;61847;54.994;73.310;2022-10-17T15:33:51;2.55;;;1.75;;
73567;SDS011;61847;54.994;73.310;2022-10-17T15:38:53;5.28;;;2.40;;
73567;SDS011;61847;54.994;73.310;2022-10-17T15:41:21;5.88;;;2.05;;
73567;SDS011;61847;54.994;73.310;2022-10-17T15:43:58;3.03;;;2.05;;
73567;SDS011;61847;54.994;73.310;2022-10-17T15:46:27;4.57;;;1.92;;
73567;SDS011;61847;54.994;73.310;2022-10-17T15:49:19;3.47;;;2.00;;
73567;SDS011;61847;54.994;73.310;2022-10-17T15:51:48;4.57;;;2.60;;
73567;SDS011;61847;54.994;73.310;2022-10-17T15:54:15;2.97;;;1.75;;
73567;SDS011;61847;54.994;73.310;2022-10-17T15:56:41;3.30;;;1.90;;
73567;SDS011;61847;54.994;73.310;2022-10-17T15:59:15;4.07;;;2.13;;
73567;SDS011;61847;54.994;73.310;2022-10-17T16:01:44;2.83;;;2.05;;
73567;SDS011;61847;54.994;73.310;2022-10-17T16:04:12;7.22;;;2.17;;
73567;SDS011;61847;54.994;73.310;2022-10-17T16:06:40;5.13;;;2.67;;
73567;SDS011;61847;54.994;73.310;2022-10-17T16:09:07;5.90;;;2.60;;
73567;SDS011;61847;54.994;73.310;2022-10-17T16:11:35;5.75;;;2.70;;
73567;SDS011;61847;54.994;73.310;2022-10-17T16:14:15;6.07;;;2.58;;
73567;SDS011;61847;54.994;73.310;2022-10-17T16:16:42;4.22;;;2.35;;
73567;SDS011;61847;54.994;73.310;2022-10-17T16:19:09;3.45;;;2.30;;
73567;SDS011;61847;54.994;73.310;2022-10-17T16:21:37;4.20;;;2.25;;
73567;SDS011;61847;54.994;73.310;2022-10-17T16:24:09;5.45;;;2.58;;
73567;SDS011;61847;54.994;73.310;2022-10-17T16:26:42;5.78;;;2.97;;
73567;SDS011;61847;54.994;73.310;2022-10-17T16:29:09;15.25;;;8.88;;
73567;SDS011;61847;54.994;73.310;2022-10-17T16:31:36;7.43;;;2.97;;
73567;SDS011;61847;54.994;73.310;2022-10-17T16:34:06;4.35;;;2.20;;
73567;SDS011;61847;54.994;73.310;2022-10-17T16:36:33;5.32;;;2.50;;
73567;SDS011;61847;54.994;73.310;2022-10-17T16:39:00;5.05;;;2.55;;
73567;SDS011;61847;54.994;73.310;2022-10-17T16:41:27;3.08;;;2.10;;
73567;SDS011;61847;54.994;73.310;2022-10-17T16:43:56;4.25;;;2.40;;
73567;SDS011;61847;54.994;73.310;2022-10-17T16:46:24;4.55;;;2.40;;
73567;SDS011;61847;54.994;73.310;2022-10-17T16:48:51;4.13;;;2.33;;
73567;SDS011;61847;54.994;73.310;2022-10-17T16:51:18;4.13;;;2.30;;
73567;SDS011;61847;54.994;73.310;2022-10-17T16:53:45;5.97;;;2.85;;
73567;SDS011;61847;54.994;73.310;2022-10-17T16:56:25;5.78;;;2.80;;
73567;SDS011;61847;54.994;73.310;2022-10-17T16:59:08;9.48;;;3.00;;
73567;SDS011;61847;54.994;73.310;2022-10-17T17:01:35;5.65;;;2.42;;